Terminal Aerodrome Forecast
Issued by NWS

Home | Current Version | Previous Version | Text Only | Print | Product List | Glossary Off
Versions: 1 2 3 4 5 6 7 8 9 10 11 12 13 14 15 16 17 18 19 20 21 22 23

000
FTUS43 KLSX 280500
TAFUIN
TAF
KUIN 280520Z 2806/2906 32008KT P6SM SKC
     FM281500 34010G18KT P6SM BKN050
     FM282000 35010G18KT P6SM SCT050
     FM290200 VRB03KT P6SM SKC=

USA.gov is the U.S. government's official web portal to all federal, state and local government web resources and services.